createdAt,value
2022-08-22T00:00:22.117Z,100.00
2022-08-22T00:01:26.540Z,100.00
2022-08-22T00:02:34.298Z,100.00
2022-08-22T00:02:57.557Z,83.27
2022-08-22T00:03:04.494Z,74.94
2022-08-22T00:03:06.741Z,92.18
2022-08-22T00:03:07.585Z,72.94
2022-08-22T00:03:09.242Z,89.26
2022-08-22T00:03:39.644Z,100.00
2022-08-22T00:04:48.671Z,100.00
2022-08-22T00:05:54.001Z,100.00
2022-08-22T00:06:59.809Z,100.00
2022-08-22T00:07:58.795Z,100.00
2022-08-22T00:09:20.601Z,100.00
2022-08-22T00:10:27.842Z,100.00
2022-08-22T00:11:46.544Z,100.00
2022-08-22T00:12:58.130Z,100.00
2022-08-22T00:14:07.392Z,100.00
2022-08-22T00:15:13.200Z,100.00
2022-08-22T00:16:31.549Z,100.00
2022-08-22T00:17:35.332Z,100.00
2022-08-22T00:18:34.934Z,100.00
2022-08-22T00:19:48.884Z,100.00
2022-08-22T00:20:43.321Z,100.00
2022-08-22T00:21:40.219Z,100.00
2022-08-22T00:22:40.107Z,100.00
2022-08-22T00:23:38.774Z,100.00
2022-08-22T00:24:39.422Z,100.00
2022-08-22T00:25:51.321Z,100.00
2022-08-22T00:26:51.235Z,100.00
2022-08-22T00:28:10.481Z,100.00
2022-08-22T00:29:08.699Z,100.00
2022-08-22T00:30:14.324Z,100.00
2022-08-22T00:31:15.535Z,100.00
2022-08-22T00:32:18.802Z,100.00
2022-08-22T00:33:34.529Z,100.00
2022-08-22T00:34:40.006Z,100.00
2022-08-22T00:35:42.937Z,100.00
2022-08-22T00:36:53.169Z,100.00
2022-08-22T00:37:47.493Z,100.00
2022-08-22T00:38:42.248Z,100.00
2022-08-22T00:39:39.251Z,100.00
2022-08-22T00:40:59.672Z,100.00
2022-08-22T00:41:51.919Z,100.00
2022-08-22T00:42:53.577Z,100.00
2022-08-22T00:43:56.560Z,100.00
2022-08-22T00:45:04.635Z,100.00
2022-08-22T00:46:21.358Z,100.00
2022-08-22T00:47:29.198Z,100.00
2022-08-22T00:48:29.670Z,100.00
2022-08-22T00:49:48.230Z,100.00
2022-08-22T00:50:52.769Z,100.00
2022-08-22T00:51:51.155Z,100.00
2022-08-22T00:52:58.865Z,100.00
2022-08-22T00:54:04.526Z,100.00
2022-08-22T00:55:16.302Z,100.00
2022-08-22T00:56:42.458Z,100.00
2022-08-22T00:57:56.864Z,100.00
2022-08-22T00:58:46.326Z,100.00
2022-08-22T00:59:38.630Z,100.00
2022-08-22T01:00:29.419Z,100.00
2022-08-22T01:01:34.572Z,100.00
2022-08-22T01:02:33.376Z,100.00
2022-08-22T01:04:03.958Z,100.00
2022-08-22T01:05:18.308Z,100.00
2022-08-22T01:06:39.828Z,100.00
2022-08-22T01:08:08.167Z,100.00
2022-08-22T01:09:17.966Z,100.00
2022-08-22T01:10:29.001Z,100.00
2022-08-22T01:11:30.595Z,100.00
2022-08-22T01:12:52.331Z,100.00
2022-08-22T01:14:03.490Z,100.00
2022-08-22T01:15:06.314Z,100.00
2022-08-22T01:16:17.242Z,100.00
2022-08-22T01:17:39.229Z,100.00
2022-08-22T01:19:11.580Z,100.00
2022-08-22T01:20:23.693Z,100.00
2022-08-22T01:22:00.012Z,100.00
2022-08-22T01:22:49.178Z,100.00
2022-08-22T01:24:00.976Z,100.00
2022-08-22T01:25:07.395Z,100.00
2022-08-22T01:26:17.126Z,100.00
2022-08-22T01:27:32.218Z,100.00
2022-08-22T01:28:55.721Z,100.00
2022-08-22T01:30:03.279Z,100.00
2022-08-22T01:31:38.938Z,100.00
2022-08-22T01:32:31.818Z,100.00
2022-08-22T01:33:49.077Z,100.00
2022-08-22T01:35:05.097Z,100.00
2022-08-22T01:36:14.156Z,100.00
2022-08-22T01:37:12.816Z,100.00
2022-08-22T01:37:59.564Z,100.00
2022-08-22T01:39:00.924Z,100.00
2022-08-22T01:40:25.268Z,100.00
2022-08-22T01:41:31.744Z,100.00
2022-08-22T01:42:39.839Z,100.00
2022-08-22T01:44:00.728Z,100.00
2022-08-22T01:45:03.832Z,100.00
2022-08-22T01:46:09.436Z,100.00
2022-08-22T01:47:05.834Z,100.00
2022-08-22T01:48:18.974Z,100.00
2022-08-22T01:49:31.577Z,100.00
2022-08-22T01:50:38.440Z,100.00
2022-08-22T01:51:37.693Z,100.00
2022-08-22T01:52:44.757Z,100.00
2022-08-22T01:53:56.504Z,100.00
2022-08-22T01:54:54.773Z,100.00
2022-08-22T01:55:59.981Z,100.00
2022-08-22T01:56:48.068Z,100.00
2022-08-22T01:58:12.450Z,100.00
2022-08-22T01:59:14.891Z,100.00
2022-08-22T02:00:17.411Z,100.00
2022-08-22T02:01:32.516Z,100.00
2022-08-22T02:02:37.556Z,100.00
2022-08-22T02:03:59.364Z,100.00
2022-08-22T02:05:04.244Z,100.00
2022-08-22T02:06:02.027Z,100.00
2022-08-22T02:07:14.133Z,100.00
2022-08-22T02:08:14.861Z,100.00
2022-08-22T02:09:32.367Z,100.00
2022-08-22T02:10:40.518Z,100.00
2022-08-22T02:12:13.860Z,100.00
2022-08-22T02:13:14.332Z,100.00
2022-08-22T02:14:25.384Z,100.00
2022-08-22T02:15:14.745Z,100.00
2022-08-22T02:16:38.683Z,100.00
2022-08-22T02:17:31.774Z,100.00
2022-08-22T02:18:33.475Z,100.00
2022-08-22T02:19:30.962Z,100.00
2022-08-22T02:20:31.733Z,100.00
2022-08-22T02:21:39.944Z,100.00
2022-08-22T02:22:59.423Z,100.00
2022-08-22T02:24:03.157Z,100.00
2022-08-22T02:25:04.352Z,100.00
2022-08-22T02:26:08.251Z,100.00
2022-08-22T02:27:05.077Z,100.00
2022-08-22T02:28:06.682Z,100.00
2022-08-22T02:29:28.705Z,100.00
2022-08-22T02:30:20.770Z,100.00
2022-08-22T02:31:23.052Z,100.00
2022-08-22T02:32:33.146Z,100.00
2022-08-22T02:33:38.568Z,100.00
2022-08-22T02:35:12.909Z,100.00
2022-08-22T02:36:07.357Z,100.00
2022-08-22T02:37:07.240Z,100.00
2022-08-22T02:38:15.973Z,100.00
2022-08-22T02:39:06.927Z,100.00
2022-08-22T02:40:05.941Z,100.00
2022-08-22T02:41:21.752Z,100.00
2022-08-22T02:42:18.911Z,100.00
2022-08-22T02:43:18.421Z,100.00
2022-08-22T02:44:19.801Z,100.00
2022-08-22T02:45:15.636Z,100.00
2022-08-22T02:46:31.619Z,100.00
2022-08-22T02:47:33.066Z,100.00
2022-08-22T02:48:19.567Z,100.00
2022-08-22T02:49:27.386Z,100.00
2022-08-22T02:50:38.215Z,100.00
2022-08-22T02:51:51.450Z,100.00
2022-08-22T02:52:56.815Z,100.00
2022-08-22T02:54:07.212Z,100.00
2022-08-22T02:55:03.403Z,100.00
2022-08-22T02:56:11.510Z,100.00
2022-08-22T02:57:14.035Z,100.00
2022-08-22T02:58:21.023Z,100.00
2022-08-22T02:59:13.579Z,100.00
2022-08-22T03:00:30.996Z,100.00
2022-08-22T03:01:29.712Z,100.00
2022-08-22T03:02:38.078Z,100.00
2022-08-22T03:03:28.838Z,100.00
2022-08-22T03:04:50.853Z,100.00
2022-08-22T03:05:39.790Z,100.00
2022-08-22T03:06:39.205Z,100.00
2022-08-22T03:07:36.436Z,100.00
2022-08-22T03:08:32.808Z,100.00
2022-08-22T03:09:31.996Z,100.00
2022-08-22T03:10:26.058Z,100.00
2022-08-22T03:11:29.923Z,100.00
2022-08-22T03:12:47.355Z,100.00
2022-08-22T03:13:57.515Z,100.00
2022-08-22T03:15:16.331Z,100.00
2022-08-22T03:16:41.045Z,100.00
2022-08-22T03:17:38.369Z,100.00
2022-08-22T03:18:32.873Z,100.00
2022-08-22T03:19:31.566Z,100.00
2022-08-22T03:20:41.389Z,100.00
2022-08-22T03:21:35.887Z,100.00
2022-08-22T03:22:27.944Z,100.00
2022-08-22T03:23:42.387Z,100.00
2022-08-22T03:24:44.285Z,100.00
2022-08-22T03:25:43.322Z,100.00
2022-08-22T03:26:43.747Z,100.00
2022-08-22T03:27:50.512Z,100.00
2022-08-22T03:29:02.988Z,100.00
2022-08-22T03:30:01.098Z,100.00
2022-08-22T03:30:50.744Z,100.00
2022-08-22T03:31:37.967Z,100.00
2022-08-22T03:32:49.278Z,100.00
2022-08-22T03:33:35.894Z,100.00
2022-08-22T03:34:27.043Z,100.00
2022-08-22T03:35:26.399Z,100.00
2022-08-22T03:36:15.867Z,100.00
2022-08-22T03:37:05.305Z,100.00
2022-08-22T03:38:08.977Z,100.00
2022-08-22T03:39:18.447Z,100.00
2022-08-22T03:40:19.954Z,100.00
2022-08-22T03:41:23.832Z,100.00
2022-08-22T03:42:17.912Z,100.00
2022-08-22T03:43:37.874Z,100.00
2022-08-22T03:44:58.876Z,100.00
2022-08-22T03:46:07.616Z,100.00
2022-08-22T03:47:18.118Z,100.00
2022-08-22T03:48:35.559Z,100.00
2022-08-22T03:50:01.445Z,100.00
2022-08-22T03:51:11.560Z,100.00
2022-08-22T03:52:15.005Z,100.00
2022-08-22T03:53:26.432Z,100.00
2022-08-22T03:54:37.604Z,100.00
2022-08-22T03:55:33.255Z,100.00
2022-08-22T03:56:57.479Z,100.00
2022-08-22T03:58:04.427Z,100.00
2022-08-22T03:59:10.161Z,100.00
2022-08-22T04:00:21.299Z,100.00
2022-08-22T04:01:28.363Z,100.00
2022-08-22T04:02:44.309Z,100.00
2022-08-22T04:04:18.978Z,100.00
2022-08-22T04:05:18.744Z,100.00
2022-08-22T04:06:35.247Z,100.00
2022-08-22T04:07:42.718Z,100.00
2022-08-22T04:08:58.676Z,100.00
2022-08-22T04:10:14.200Z,100.00
2022-08-22T04:11:25.404Z,100.00
2022-08-22T04:12:23.994Z,100.00
2022-08-22T04:13:29.204Z,100.00
2022-08-22T04:14:35.618Z,100.00
2022-08-22T04:15:44.143Z,100.00
2022-08-22T04:17:08.069Z,100.00
2022-08-22T04:18:19.869Z,100.00
2022-08-22T04:19:32.473Z,100.00
2022-08-22T04:20:40.416Z,100.00
2022-08-22T04:21:57.305Z,100.00
2022-08-22T04:23:15.998Z,100.00
2022-08-22T04:24:35.805Z,100.00
2022-08-22T04:26:10.822Z,100.00
2022-08-22T04:27:26.308Z,100.00
2022-08-22T04:28:28.818Z,100.00
2022-08-22T04:29:40.680Z,100.00
2022-08-22T04:30:50.658Z,100.00
2022-08-22T04:32:14.837Z,100.00
2022-08-22T04:33:22.143Z,100.00
2022-08-22T04:34:28.077Z,100.00
2022-08-22T04:35:35.719Z,100.00
2022-08-22T04:36:40.427Z,100.00
2022-08-22T04:37:40.436Z,100.00
2022-08-22T04:38:44.425Z,100.00
2022-08-22T04:39:45.158Z,100.00
2022-08-22T04:40:43.438Z,100.00
2022-08-22T04:41:51.623Z,100.00
2022-08-22T04:43:06.179Z,100.00
2022-08-22T04:44:06.443Z,100.00
2022-08-22T04:45:02.394Z,100.00
2022-08-22T04:45:54.298Z,100.00
2022-08-22T04:46:53.361Z,100.00
2022-08-22T04:48:07.551Z,100.00
2022-08-22T04:49:05.863Z,100.00
2022-08-22T04:49:58.698Z,100.00
2022-08-22T04:51:19.142Z,100.00
2022-08-22T04:52:35.543Z,100.00
2022-08-22T04:53:28.060Z,100.00
2022-08-22T04:54:29.688Z,100.00
2022-08-22T04:55:52.320Z,100.00
2022-08-22T04:57:19.391Z,100.00
2022-08-22T04:58:16.032Z,100.00
2022-08-22T04:59:16.860Z,100.00
2022-08-22T05:00:08.468Z,100.00
2022-08-22T05:01:07.217Z,100.00
2022-08-22T05:01:57.566Z,100.00
2022-08-22T05:02:50.487Z,100.00
2022-08-22T05:03:45.788Z,100.00
2022-08-22T05:04:36.754Z,100.00
2022-08-22T05:05:37.783Z,100.00
2022-08-22T05:06:30.358Z,100.00
2022-08-22T05:07:28.646Z,100.00
2022-08-22T05:08:31.833Z,100.00
2022-08-22T05:09:25.767Z,100.00
2022-08-22T05:10:37.599Z,100.00
2022-08-22T05:11:30.551Z,100.00
2022-08-22T05:12:31.087Z,100.00
2022-08-22T05:13:22.620Z,100.00
2022-08-22T05:14:22.750Z,100.00
2022-08-22T05:15:22.996Z,100.00
2022-08-22T05:16:23.763Z,100.00
2022-08-22T05:17:22.981Z,100.00
2022-08-22T05:18:20.957Z,100.00
2022-08-22T05:19:23.028Z,100.00
2022-08-22T05:20:21.205Z,100.00
2022-08-22T05:21:13.906Z,100.00
2022-08-22T05:22:03.476Z,100.00
2022-08-22T05:23:00.239Z,100.00
2022-08-22T05:23:58.628Z,100.00
2022-08-22T05:24:51.993Z,100.00
2022-08-22T05:25:42.905Z,100.00
2022-08-22T05:26:43.290Z,100.00
2022-08-22T05:27:39.127Z,100.00
2022-08-22T05:28:35.023Z,100.00
2022-08-22T05:29:30.133Z,100.00
2022-08-22T05:30:28.072Z,100.00
2022-08-22T05:31:26.366Z,100.00
2022-08-22T05:32:32.558Z,100.00
2022-08-22T05:33:30.025Z,100.00
2022-08-22T05:34:22.644Z,100.00
2022-08-22T05:35:10.508Z,100.00
2022-08-22T05:36:11.845Z,100.00
2022-08-22T05:37:14.336Z,100.00
2022-08-22T05:38:06.301Z,100.00
2022-08-22T05:39:02.588Z,100.00
2022-08-22T05:39:57.876Z,100.00
2022-08-22T05:40:59.675Z,100.00
2022-08-22T05:41:53.163Z,100.00
2022-08-22T05:42:40.100Z,100.00
2022-08-22T05:43:27.805Z,100.00
2022-08-22T05:44:27.982Z,100.00
2022-08-22T05:45:18.987Z,100.00
2022-08-22T05:46:14.688Z,100.00
2022-08-22T05:47:20.086Z,100.00
2022-08-22T05:48:17.955Z,100.00
2022-08-22T05:49:16.153Z,100.00
2022-08-22T05:50:36.973Z,100.00
2022-08-22T05:52:04.706Z,100.00
2022-08-22T05:53:10.833Z,100.00
2022-08-22T05:54:15.152Z,100.00
2022-08-22T05:55:25.708Z,100.00
2022-08-22T05:56:22.572Z,100.00
2022-08-22T05:57:31.581Z,100.00
2022-08-22T05:58:41.495Z,100.00
2022-08-22T05:59:35.073Z,100.00
2022-08-22T06:00:26.970Z,100.00
2022-08-22T06:01:25.762Z,100.00
2022-08-22T06:02:21.557Z,100.00
2022-08-22T06:03:16.233Z,100.00
2022-08-22T06:04:21.209Z,100.00
2022-08-22T06:05:12.134Z,100.00
2022-08-22T06:06:06.818Z,100.00
2022-08-22T06:07:08.519Z,100.00
2022-08-22T06:08:05.185Z,100.00
2022-08-22T06:09:12.017Z,100.00
2022-08-22T06:10:25.503Z,100.00
2022-08-22T06:11:33.584Z,100.00
2022-08-22T06:12:43.143Z,100.00
2022-08-22T06:13:41.315Z,100.00
2022-08-22T06:14:48.074Z,100.00
2022-08-22T06:16:05.669Z,100.00
2022-08-22T06:17:12.168Z,100.00
2022-08-22T06:18:07.206Z,100.00
2022-08-22T06:18:57.392Z,100.00
2022-08-22T06:19:50.678Z,100.00
2022-08-22T06:21:02.472Z,100.00
2022-08-22T06:21:54.238Z,100.00
2022-08-22T06:22:51.614Z,100.00
2022-08-22T06:23:56.606Z,100.00
2022-08-22T06:24:44.877Z,100.00
2022-08-22T06:25:39.587Z,100.00
2022-08-22T06:26:35.137Z,100.00
2022-08-22T06:27:26.954Z,100.00
2022-08-22T06:28:25.052Z,100.00
2022-08-22T06:29:30.294Z,100.00
2022-08-22T06:30:19.064Z,100.00
2022-08-22T06:31:22.246Z,100.00
2022-08-22T06:32:15.889Z,100.00
2022-08-22T06:33:08.349Z,100.00
2022-08-22T06:34:09.368Z,100.00
2022-08-22T06:35:04.202Z,100.00
2022-08-22T06:36:20.551Z,100.00
2022-08-22T06:37:17.896Z,100.00
2022-08-22T06:38:05.223Z,100.00
2022-08-22T06:38:54.695Z,100.00
2022-08-22T06:39:49.248Z,100.00
2022-08-22T06:40:36.187Z,100.00
2022-08-22T06:41:28.469Z,100.00
2022-08-22T06:42:29.745Z,100.00
2022-08-22T06:43:18.576Z,100.00
2022-08-22T06:44:10.146Z,100.00
2022-08-22T06:45:12.008Z,100.00
2022-08-22T06:45:59.666Z,100.00
2022-08-22T06:46:50.074Z,100.00
2022-08-22T06:47:43.591Z,100.00
2022-08-22T06:48:38.170Z,100.00
2022-08-22T06:49:27.390Z,100.00
2022-08-22T06:50:25.138Z,100.00
2022-08-22T06:51:18.924Z,100.00
2022-08-22T06:52:15.055Z,100.00
2022-08-22T06:53:18.752Z,100.00
2022-08-22T06:54:14.533Z,100.00
2022-08-22T06:55:09.165Z,100.00
2022-08-22T06:56:02.600Z,100.00
2022-08-22T06:56:55.325Z,100.00
2022-08-22T06:58:03.505Z,100.00
2022-08-22T06:58:56.479Z,100.00
2022-08-22T06:59:45.963Z,100.00
2022-08-22T07:00:35.643Z,100.00
2022-08-22T07:01:39.367Z,100.00
2022-08-22T07:02:38.200Z,100.00
2022-08-22T07:03:52.951Z,100.00
2022-08-22T07:04:40.853Z,100.00
2022-08-22T07:05:34.231Z,100.00
2022-08-22T07:06:35.207Z,100.00
2022-08-22T07:07:26.491Z,100.00
2022-08-22T07:08:21.424Z,100.00
2022-08-22T07:09:24.102Z,100.00
2022-08-22T07:10:15.914Z,100.00
2022-08-22T07:11:25.954Z,100.00
2022-08-22T07:12:21.572Z,100.00
2022-08-22T07:13:16.415Z,100.00
2022-08-22T07:14:05.645Z,100.00
2022-08-22T07:14:57.679Z,100.00
2022-08-22T07:15:54.474Z,100.00
2022-08-22T07:17:04.619Z,100.00
2022-08-22T07:17:59.606Z,100.00
2022-08-22T07:18:50.688Z,100.00
2022-08-22T07:19:45.894Z,100.00
2022-08-22T07:20:45.580Z,100.00
2022-08-22T07:21:47.157Z,100.00
2022-08-22T07:22:37.371Z,100.00
2022-08-22T07:23:41.954Z,100.00
2022-08-22T07:24:32.764Z,100.00
2022-08-22T07:25:20.601Z,100.00
2022-08-22T07:26:25.477Z,100.00
2022-08-22T07:27:37.468Z,100.00
2022-08-22T07:28:51.464Z,100.00
2022-08-22T07:30:10.756Z,100.00
2022-08-22T07:31:05.350Z,100.00
2022-08-22T07:31:57.464Z,100.00
2022-08-22T07:33:25.880Z,100.00
2022-08-22T07:34:19.904Z,100.00
2022-08-22T07:35:36.083Z,100.00
2022-08-22T07:36:41.337Z,100.00
2022-08-22T07:37:48.461Z,100.00
2022-08-22T07:38:44.993Z,100.00
2022-08-22T07:39:55.116Z,100.00
2022-08-22T07:41:09.764Z,100.00
2022-08-22T07:42:15.064Z,100.00
2022-08-22T07:43:19.831Z,100.00
2022-08-22T07:44:21.445Z,100.00
2022-08-22T07:45:17.439Z,100.00
2022-08-22T07:46:03.946Z,100.00
2022-08-22T07:47:00.584Z,100.00
2022-08-22T07:48:02.894Z,100.00
2022-08-22T07:49:16.441Z,100.00
2022-08-22T07:50:08.325Z,100.00
2022-08-22T07:51:12.253Z,100.00
2022-08-22T07:52:07.974Z,100.00
2022-08-22T07:53:04.987Z,100.00
2022-08-22T07:54:09.640Z,94.33
2022-08-22T07:55:09.041Z,89.04
2022-08-22T07:55:59.483Z,87.67
2022-08-22T07:57:21.083Z,86.77
2022-08-22T07:58:11.193Z,87.31
2022-08-22T07:59:14.353Z,85.58
2022-08-22T08:00:10.946Z,86.01
2022-08-22T08:01:02.952Z,85.66
2022-08-22T08:01:54.709Z,83.43
2022-08-22T08:02:50.986Z,82.58
2022-08-22T08:03:39.190Z,82.40
2022-08-22T08:04:40.177Z,80.49
2022-08-22T08:05:32.573Z,80.16
2022-08-22T08:06:23.352Z,78.05
2022-08-22T08:07:22.567Z,77.52
2022-08-22T08:08:31.807Z,77.10
2022-08-22T08:09:20.313Z,76.61
2022-08-22T08:10:14.331Z,75.77
2022-08-22T08:11:03.472Z,75.48
2022-08-22T08:11:53.999Z,73.88
2022-08-22T08:12:57.942Z,74.52
2022-08-22T08:14:01.453Z,74.12
2022-08-22T08:14:54.880Z,74.30
2022-08-22T08:15:45.740Z,74.68
2022-08-22T08:16:44.107Z,74.40
2022-08-22T08:17:35.429Z,73.63
2022-08-22T08:18:32.094Z,74.44
2022-08-22T08:19:23.297Z,74.31
2022-08-22T08:20:19.659Z,74.03
2022-08-22T08:21:10.660Z,73.17
2022-08-22T08:21:59.291Z,72.73
2022-08-22T08:22:48.505Z,72.26
2022-08-22T08:23:44.778Z,70.81
2022-08-22T08:24:40.475Z,70.70
2022-08-22T08:25:36.832Z,70.53
2022-08-22T08:26:39.928Z,68.43
2022-08-22T08:27:53.361Z,68.15
2022-08-22T08:28:48.334Z,68.51
2022-08-22T08:29:36.953Z,68.15
2022-08-22T08:30:43.146Z,68.94
2022-08-22T08:31:43.313Z,70.14
2022-08-22T08:32:38.023Z,69.18
2022-08-22T08:33:29.131Z,68.41
2022-08-22T08:34:30.576Z,69.05
2022-08-22T08:35:28.209Z,68.13
2022-08-22T08:36:35.947Z,68.38
2022-08-22T08:37:44.645Z,67.64
2022-08-22T08:39:01.221Z,66.05
2022-08-22T08:39:53.310Z,66.13
2022-08-22T08:41:18.644Z,66.88
2022-08-22T08:42:57.972Z,65.61
2022-08-22T08:44:03.894Z,65.78
2022-08-22T08:45:28.926Z,65.45
2022-08-22T08:46:55.674Z,65.10
2022-08-22T08:47:59.225Z,66.02
2022-08-22T08:49:14.169Z,65.62
2022-08-22T08:50:38.906Z,65.36
2022-08-22T08:51:56.318Z,65.38
2022-08-22T08:53:16.953Z,65.36
2022-08-22T08:54:26.254Z,64.28
2022-08-22T08:55:38.377Z,64.62
2022-08-22T08:56:38.190Z,65.29
2022-08-22T08:58:06.952Z,65.72
2022-08-22T08:59:21.602Z,64.34
2022-08-22T09:00:17.008Z,64.18
2022-08-22T09:01:50.208Z,63.65
2022-08-22T09:02:53.317Z,62.93
2022-08-22T09:04:15.324Z,62.25
2022-08-22T09:05:55.682Z,62.17
2022-08-22T09:07:09.660Z,62.52
2022-08-22T09:08:16.925Z,62.67
2022-08-22T09:09:14.211Z,62.53
2022-08-22T09:12:01.550Z,62.33
2022-08-22T09:13:12.431Z,62.09
2022-08-22T09:14:27.547Z,61.62
2022-08-22T09:15:40.596Z,60.28
2022-08-22T09:16:46.244Z,61.29
2022-08-22T09:17:50.632Z,60.29
2022-08-22T09:19:02.960Z,58.41
2022-08-22T09:21:53.195Z,57.62
2022-08-22T09:23:16.337Z,55.03
2022-08-22T09:24:27.627Z,55.33
2022-08-22T09:25:38.725Z,53.88
2022-08-22T09:26:39.782Z,55.01
2022-08-22T09:27:29.831Z,54.98
2022-08-22T09:28:42.712Z,55.04
2022-08-22T09:29:55.230Z,55.64
2022-08-22T09:31:16.778Z,55.23
2022-08-22T09:32:36.999Z,55.09
2022-08-22T09:33:38.549Z,54.44
2022-08-22T09:34:45.355Z,53.97
2022-08-22T09:35:46.673Z,53.11
2022-08-22T09:37:08.451Z,53.90
2022-08-22T09:38:32.596Z,51.97
2022-08-22T09:39:55.537Z,53.96
2022-08-22T09:40:15.394Z,62.00
2022-08-22T09:41:12.948Z,54.30
2022-08-22T09:42:20.271Z,54.57
2022-08-22T09:43:30.587Z,54.33
2022-08-22T09:44:59.635Z,55.21
2022-08-22T09:46:09.596Z,52.63
2022-08-22T09:47:16.527Z,51.34
2022-08-22T09:48:51.451Z,52.74
2022-08-22T09:49:59.621Z,52.70
2022-08-22T09:51:04.713Z,52.54
2022-08-22T09:52:35.882Z,53.12
2022-08-22T09:53:45.028Z,54.51
2022-08-22T09:54:48.508Z,53.61
2022-08-22T09:56:00.311Z,53.83
2022-08-22T09:57:22.678Z,52.89
2022-08-22T09:58:41.802Z,50.96
2022-08-22T09:59:49.082Z,51.74
2022-08-22T10:00:47.161Z,53.21
2022-08-22T10:01:56.151Z,52.93
2022-08-22T10:03:04.280Z,51.16
2022-08-22T10:04:28.117Z,51.67
2022-08-22T10:05:38.496Z,51.32
2022-08-22T10:06:44.941Z,53.40
2022-08-22T10:07:54.969Z,50.81
2022-08-22T10:09:25.236Z,50.50
2022-08-22T10:10:55.369Z,51.00
2022-08-22T10:12:00.228Z,50.64
2022-08-22T10:13:03.920Z,50.17
2022-08-22T10:14:08.498Z,48.69
2022-08-22T10:15:06.907Z,50.07
2022-08-22T10:15:56.673Z,49.78
2022-08-22T10:16:55.120Z,48.99
2022-08-22T10:18:02.888Z,50.49
2022-08-22T10:19:09.315Z,50.31
2022-08-22T10:20:28.211Z,49.29
2022-08-22T10:21:35.289Z,48.39
2022-08-22T10:23:09.587Z,49.22
2022-08-22T10:24:27.314Z,48.50
2022-08-22T10:25:33.991Z,48.45
2022-08-22T10:26:47.486Z,48.41
2022-08-22T10:27:48.133Z,47.99
2022-08-22T10:28:34.695Z,48.50
2022-08-22T10:30:02.143Z,48.50
2022-08-22T10:31:02.033Z,49.18
2022-08-22T10:31:58.909Z,49.15
2022-08-22T10:33:00.529Z,49.06
2022-08-22T10:34:29.321Z,49.09
2022-08-22T10:35:33.973Z,48.05
2022-08-22T10:36:53.853Z,48.77
2022-08-22T10:38:06.889Z,47.68
2022-08-22T10:39:02.068Z,47.42
2022-08-22T10:40:26.024Z,46.78
2022-08-22T10:41:25.932Z,47.83
2022-08-22T10:42:27.988Z,47.08
2022-08-22T10:43:29.157Z,47.13
2022-08-22T10:44:19.587Z,46.23
2022-08-22T10:45:23.782Z,46.73
2022-08-22T10:46:35.732Z,45.74
2022-08-22T10:47:34.816Z,46.78
2022-08-22T10:48:34.995Z,45.54
2022-08-22T10:49:33.033Z,43.96
2022-08-22T10:50:31.033Z,43.30
2022-08-22T10:51:32.216Z,43.46
2022-08-22T10:52:25.547Z,42.89
2022-08-22T10:53:37.328Z,42.54
2022-08-22T10:54:43.434Z,41.84
2022-08-22T10:55:30.829Z,41.61
2022-08-22T10:57:00.130Z,41.82
2022-08-22T10:58:05.061Z,41.73
2022-08-22T10:59:16.281Z,41.91
2022-08-22T11:00:31.139Z,41.61
2022-08-22T11:01:41.016Z,41.95
2022-08-22T11:02:54.906Z,41.85
2022-08-22T11:03:52.946Z,40.82
2022-08-22T11:04:55.797Z,41.23
2022-08-22T11:05:47.781Z,40.96
2022-08-22T11:06:39.917Z,41.87
2022-08-22T11:08:12.151Z,40.91
2022-08-22T11:09:11.362Z,40.80
2022-08-22T11:10:29.129Z,41.30
2022-08-22T11:11:36.434Z,39.96
2022-08-22T11:12:36.465Z,40.03
2022-08-22T11:13:42.303Z,39.88
2022-08-22T11:14:37.962Z,38.74
2022-08-22T11:16:04.557Z,39.51
2022-08-22T11:17:34.651Z,38.85
2022-08-22T11:19:03.050Z,38.48
2022-08-22T11:20:16.091Z,37.30
2022-08-22T11:21:27.374Z,37.41
2022-08-22T11:22:39.980Z,36.83
2022-08-22T11:23:44.513Z,36.67
2022-08-22T11:25:08.902Z,36.35
2022-08-22T11:26:14.997Z,36.24
2022-08-22T11:27:46.568Z,36.50
2022-08-22T11:28:39.035Z,37.81
2022-08-22T11:29:48.602Z,36.67
2022-08-22T11:31:00.712Z,35.65
2022-08-22T11:32:05.819Z,34.92
2022-08-22T11:33:46.178Z,36.04
2022-08-22T11:35:00.498Z,35.52
2022-08-22T11:36:06.874Z,35.41
2022-08-22T11:37:20.214Z,34.60
2022-08-22T11:38:54.325Z,35.90
2022-08-22T11:39:49.518Z,35.95
2022-08-22T11:40:39.060Z,36.15
2022-08-22T11:41:52.222Z,35.87
2022-08-22T11:43:16.403Z,35.03
2022-08-22T11:44:34.482Z,35.51
2022-08-22T11:45:35.053Z,35.00
2022-08-22T11:46:36.082Z,34.95
2022-08-22T11:47:29.398Z,34.95
2022-08-22T11:48:37.226Z,35.46
2022-08-22T11:49:34.940Z,35.44
2022-08-22T11:50:42.253Z,35.52
2022-08-22T11:51:57.275Z,34.93
2022-08-22T11:53:07.590Z,35.39
2022-08-22T11:54:13.647Z,34.84
2022-08-22T11:55:34.550Z,34.64
2022-08-22T11:56:52.292Z,33.83
2022-08-22T11:58:03.162Z,34.31
2022-08-22T11:59:22.749Z,33.33
2022-08-22T12:00:23.177Z,32.53
2022-08-22T12:01:27.104Z,34.08
2022-08-22T12:02:39.080Z,33.63
2022-08-22T12:03:58.121Z,33.31
2022-08-22T12:04:58.363Z,33.62
2022-08-22T12:05:48.828Z,34.12
2022-08-22T12:07:16.075Z,33.34
2022-08-22T12:08:21.225Z,33.12
2022-08-22T12:09:18.037Z,33.19
2022-08-22T12:10:20.591Z,34.13
2022-08-22T12:11:26.980Z,34.17
2022-08-22T12:12:37.846Z,33.74
2022-08-22T12:13:50.345Z,33.04
2022-08-22T12:14:48.893Z,33.36
2022-08-22T12:16:06.686Z,33.47
2022-08-22T12:17:50.616Z,33.55
2022-08-22T12:18:45.710Z,33.32
2022-08-22T12:20:16.447Z,32.32
2022-08-22T12:21:21.592Z,32.96
2022-08-22T12:22:34.739Z,32.51
2022-08-22T12:24:11.249Z,31.79
2022-08-22T12:25:18.087Z,31.92
2022-08-22T12:26:22.172Z,32.06
2022-08-22T12:27:33.754Z,32.47
2022-08-22T12:28:45.614Z,32.09
2022-08-22T12:29:48.730Z,32.64
2022-08-22T12:31:06.576Z,32.31
2022-08-22T12:31:58.927Z,32.35
2022-08-22T12:33:09.783Z,31.99
2022-08-22T12:34:31.980Z,31.74
2022-08-22T12:35:32.536Z,31.44
2022-08-22T12:36:47.332Z,31.25
2022-08-22T12:37:52.235Z,31.97
2022-08-22T12:39:12.393Z,30.44
2022-08-22T12:40:12.362Z,30.38
2022-08-22T12:41:34.970Z,30.64
2022-08-22T12:42:41.842Z,30.11
2022-08-22T12:43:42.445Z,29.66
2022-08-22T12:45:10.466Z,29.96
2022-08-22T12:45:59.739Z,29.87
2022-08-22T12:47:06.521Z,29.90
2022-08-22T12:48:42.755Z,30.04
2022-08-22T12:49:44.904Z,29.79
2022-08-22T12:50:57.110Z,29.78
2022-08-22T12:51:56.112Z,30.69
2022-08-22T12:53:00.493Z,30.80
2022-08-22T12:54:04.462Z,30.11
2022-08-22T12:55:12.189Z,30.17
2022-08-22T12:56:12.242Z,30.20
2022-08-22T12:57:33.857Z,30.52
2022-08-22T12:58:38.299Z,30.52
2022-08-22T12:59:36.082Z,30.00
2022-08-22T13:00:34.677Z,30.77
2022-08-22T13:01:34.138Z,30.01
2022-08-22T13:02:32.469Z,30.09
2022-08-22T13:03:26.232Z,30.14
2022-08-22T13:04:33.103Z,30.25
2022-08-22T13:05:27.625Z,29.38
2022-08-22T13:06:36.181Z,29.83
2022-08-22T13:07:30.474Z,29.73
2022-08-22T13:08:27.639Z,30.09
2022-08-22T13:09:28.528Z,30.08
2022-08-22T13:10:17.611Z,29.39
2022-08-22T13:11:22.453Z,29.59
2022-08-22T13:12:47.628Z,29.65
2022-08-22T13:13:43.743Z,30.12
2022-08-22T13:14:47.847Z,30.06
2022-08-22T13:15:47.161Z,30.40
2022-08-22T13:16:48.943Z,30.13
2022-08-22T13:17:39.674Z,30.00
2022-08-22T13:18:39.236Z,29.69
2022-08-22T13:19:37.751Z,29.42
2022-08-22T13:20:34.368Z,30.14
2022-08-22T13:21:36.239Z,29.30
2022-08-22T13:22:27.792Z,29.54
2022-08-22T13:23:32.821Z,29.31
2022-08-22T13:24:51.709Z,29.69
2022-08-22T13:26:31.842Z,29.04
2022-08-22T13:27:34.679Z,29.69
2022-08-22T13:28:24.288Z,28.80
2022-08-22T13:29:42.881Z,28.50
2022-08-22T13:30:37.619Z,28.79
2022-08-22T13:31:32.148Z,28.94
2022-08-22T13:32:33.044Z,29.55
2022-08-22T13:33:30.514Z,30.27
2022-08-22T13:34:51.140Z,30.30
2022-08-22T13:35:51.951Z,30.10
2022-08-22T13:36:51.578Z,30.75
2022-08-22T13:37:44.513Z,30.89
2022-08-22T13:38:51.912Z,30.58
2022-08-22T13:39:50.811Z,30.54